Time;durP1;ratioP1;P1;durP2;ratioP2;P2;SDS_P1;SDS_P2;PMS_P1;PMS_P2;Temp;Humidity;BMP_temperature;BMP_pressure;BME280_temperature;BME280_humidity;BME280_pressure;Samples;Min_cycle;Max_cycle;Signal;HPM_P1;HPM_P2
2024/03/08 00:02:23;;;;;;;20.25;12.00;;;0.70;99.90;;;;;;4953944;28;20332;-82
2024/03/08 00:04:49;;;;;;;18.92;11.30;;;0.70;99.90;;;;;;4948192;28;20033;-81
2024/03/08 00:07:15;;;;;;;20.52;12.65;;;0.70;99.90;;;;;;4963938;28;20038;-81
2024/03/08 00:09:41;;;;;;;19.52;12.60;;;0.60;99.90;;;;;;4987307;28;20097;-82
2024/03/08 00:12:06;;;;;;;19.73;11.93;;;0.60;99.90;;;;;;4928807;28;20101;-81
2024/03/08 00:14:33;;;;;;;21.38;12.85;;;0.60;99.90;;;;;;4948094;28;20044;-81
2024/03/08 00:16:58;;;;;;;21.55;12.43;;;0.60;99.90;;;;;;4923700;28;22416;-82
2024/03/08 00:19:24;;;;;;;16.75;10.93;;;0.60;99.90;;;;;;4941457;28;21563;-82
2024/03/08 00:21:50;;;;;;;20.48;12.57;;;0.60;99.90;;;;;;4990789;28;20018;-82
2024/03/08 00:24:15;;;;;;;17.42;11.38;;;0.50;99.90;;;;;;4970755;28;20034;-81
2024/03/08 00:26:43;;;;;;;20.75;12.23;;;0.50;99.90;;;;;;4952820;28;20030;-82
2024/03/08 00:29:08;;;;;;;17.63;12.10;;;0.50;99.90;;;;;;4928825;28;20305;-82
2024/03/08 00:31:35;;;;;;;22.42;11.93;;;0.50;99.90;;;;;;4948097;28;20037;-78
2024/03/08 00:34:00;;;;;;;18.80;11.93;;;0.50;99.90;;;;;;4910258;28;20746;-81
2024/03/08 00:36:26;;;;;;;17.77;11.10;;;0.40;99.90;;;;;;4946062;28;20059;-82
2024/03/08 00:38:52;;;;;;;18.70;11.38;;;0.40;99.90;;;;;;4925042;28;20026;-83
2024/03/08 00:41:18;;;;;;;22.90;12.98;;;0.40;99.90;;;;;;4934693;28;20036;-81
2024/03/08 00:43:43;;;;;;;23.98;13.02;;;0.40;99.90;;;;;;4939930;28;20213;-82
2024/03/08 00:46:09;;;;;;;19.67;11.70;;;0.40;99.90;;;;;;4929223;28;20482;-82
2024/03/08 00:48:37;;;;;;;21.65;11.40;;;0.40;99.90;;;;;;4961561;28;20022;-83
2024/03/08 00:51:03;;;;;;;19.35;12.18;;;0.30;99.90;;;;;;4952542;28;20045;-80
2024/03/08 00:53:29;;;;;;;24.35;11.65;;;0.30;99.90;;;;;;4928784;28;20030;-79
2024/03/08 00:55:54;;;;;;;20.63;13.25;;;0.30;99.90;;;;;;4956514;28;20203;-81
2024/03/08 00:58:21;;;;;;;20.77;13.05;;;0.20;99.90;;;;;;4964544;28;20063;-80
2024/03/08 01:00:46;;;;;;;17.90;12.02;;;0.30;99.90;;;;;;4958668;28;20026;-81
2024/03/08 01:03:12;;;;;;;20.15;12.20;;;0.20;99.90;;;;;;4978539;28;20109;-83
2024/03/08 01:05:37;;;;;;;20.05;12.38;;;0.20;99.90;;;;;;4906997;28;20101;-80
2024/03/08 01:08:03;;;;;;;20.52;11.60;;;0.20;99.90;;;;;;4930110;28;20026;-80
2024/03/08 01:10:29;;;;;;;22.02;12.30;;;0.20;99.90;;;;;;4940726;28;20124;-81
2024/03/08 01:12:56;;;;;;;19.80;12.27;;;0.20;99.90;;;;;;4967238;28;20121;-81
2024/03/08 01:15:23;;;;;;;18.90;11.40;;;0.20;99.90;;;;;;4939860;28;20041;-78
2024/03/08 01:17:48;;;;;;;18.63;11.73;;;0.20;99.90;;;;;;4953661;28;20036;-80
2024/03/08 01:20:14;;;;;;;17.33;12.02;;;0.10;99.90;;;;;;4930498;28;20022;-82
2024/03/08 01:22:40;;;;;;;19.02;10.80;;;0.10;99.90;;;;;;4893865;28;20018;-77
2024/03/08 01:25:08;;;;;;;18.83;12.73;;;0.10;99.90;;;;;;4938224;28;20386;-78
2024/03/08 01:27:35;;;;;;;19.83;11.32;;;0.00;99.90;;;;;;4950080;28;20022;-81
2024/03/08 01:30:01;;;;;;;19.20;11.70;;;0.00;99.90;;;;;;4976986;28;20029;-81
2024/03/08 01:32:26;;;;;;;22.92;12.50;;;0.00;99.90;;;;;;4907394;28;20049;-81
2024/03/08 01:34:52;;;;;;;21.67;12.35;;;0.00;99.90;;;;;;4925702;28;20053;-80
2024/03/08 01:37:17;;;;;;;17.73;11.85;;;0.00;99.90;;;;;;4941912;28;20029;-81
2024/03/08 01:39:43;;;;;;;21.10;12.45;;;0.00;99.90;;;;;;4968255;28;20029;-81
2024/03/08 01:42:08;;;;;;;23.35;13.25;;;0.00;99.90;;;;;;4969687;28;20025;-79
2024/03/08 01:44:34;;;;;;;22.70;12.73;;;-0.10;99.90;;;;;;4960381;28;20100;-81
2024/03/08 01:47:00;;;;;;;18.38;12.00;;;-0.10;99.90;;;;;;5012025;28;20445;-80
2024/03/08 01:49:27;;;;;;;18.45;12.65;;;-0.10;99.90;;;;;;4992413;28;20049;-81
2024/03/08 01:51:52;;;;;;;16.73;11.77;;;-0.10;99.90;;;;;;5001717;28;20041;-81
2024/03/08 01:54:19;;;;;;;24.77;12.75;;;-0.10;99.90;;;;;;4993888;28;20040;-78
2024/03/08 01:56:46;;;;;;;19.80;11.18;;;-0.10;99.90;;;;;;5007640;28;20029;-81
2024/03/08 01:59:12;;;;;;;19.48;12.27;;;-0.20;99.90;;;;;;4999932;28;20045;-81
2024/03/08 02:01:38;;;;;;;24.77;13.38;;;-0.20;99.90;;;;;;5004639;28;20029;-81
2024/03/08 02:04:06;;;;;;;17.90;11.52;;;-0.20;99.90;;;;;;5008595;28;20100;-80
2024/03/08 02:06:32;;;;;;;17.58;11.85;;;-0.20;99.90;;;;;;5013910;28;20680;-81
2024/03/08 02:08:58;;;;;;;20.05;12.23;;;-0.20;99.90;;;;;;5007116;28;20034;-80
2024/03/08 02:11:23;;;;;;;21.83;12.32;;;-0.20;99.90;;;;;;5010583;28;20049;-80
2024/03/08 02:13:49;;;;;;;20.02;11.82;;;-0.20;99.90;;;;;;5006692;28;20026;-80
2024/03/08 02:16:21;;;;;;;25.20;13.80;;;-0.20;99.90;;;;;;5012033;28;20025;-80
2024/03/08 02:18:46;;;;;;;22.88;12.88;;;-0.20;99.90;;;;;;5005845;28;20068;-80
2024/03/08 02:21:13;;;;;;;19.65;11.93;;;-0.30;99.90;;;;;;5012284;28;20105;-81
2024/03/08 02:23:40;;;;;;;20.75;12.43;;;-0.20;99.90;;;;;;5008250;28;20057;-81
2024/03/08 02:26:07;;;;;;;20.92;11.60;;;-0.20;99.90;;;;;;5008933;28;20036;-81
2024/03/08 02:28:33;;;;;;;21.17;12.80;;;-0.30;99.90;;;;;;5004646;28;20042;-81
2024/03/08 02:30:58;;;;;;;23.98;12.60;;;-0.30;99.90;;;;;;5014207;28;20597;-79
2024/03/08 02:33:26;;;;;;;23.38;13.15;;;-0.30;99.90;;;;;;5006013;28;20136;-80
2024/03/08 02:35:51;;;;;;;23.13;12.93;;;-0.30;99.90;;;;;;5006187;28;20028;-81
2024/03/08 02:38:22;;;;;;;19.92;12.57;;;-0.30;99.90;;;;;;5004332;28;20022;-81
2024/03/08 02:40:49;;;;;;;21.42;11.95;;;-0.30;99.90;;;;;;4999842;28;20109;-81
2024/03/08 02:43:17;;;;;;;23.42;12.50;;;-0.30;99.90;;;;;;5002669;28;20026;-81
2024/03/08 02:45:44;;;;;;;21.38;12.75;;;-0.40;99.90;;;;;;5005479;28;20029;-81
2024/03/08 02:48:10;;;;;;;19.30;12.10;;;-0.30;99.90;;;;;;5007184;28;20033;-81
2024/03/08 02:50:36;;;;;;;22.88;12.45;;;-0.30;99.90;;;;;;5000896;28;20029;-78
2024/03/08 02:53:03;;;;;;;22.10;12.30;;;-0.40;99.90;;;;;;4994790;28;20021;-80
2024/03/08 02:55:29;;;;;;;19.83;12.07;;;-0.40;99.90;;;;;;4989460;28;20037;-81
2024/03/08 02:57:55;;;;;;;20.08;11.55;;;-0.40;99.90;;;;;;5002342;28;20116;-80
2024/03/08 03:00:22;;;;;;;17.95;11.38;;;-0.40;99.90;;;;;;4998785;28;20025;-78
2024/03/08 03:02:48;;;;;;;20.10;12.10;;;-0.40;99.90;;;;;;5002762;28;20024;-79
2024/03/08 03:05:14;;;;;;;19.25;12.05;;;-0.50;99.90;;;;;;5003410;28;20029;-80
2024/03/08 03:07:40;;;;;;;21.48;13.35;;;-0.40;99.90;;;;;;4992295;28;20060;-80
2024/03/08 03:10:07;;;;;;;25.10;12.77;;;-0.50;99.90;;;;;;4995114;28;20026;-81
2024/03/08 03:12:33;;;;;;;20.88;12.35;;;-0.50;99.90;;;;;;4999841;28;20032;-79
2024/03/08 03:14:59;;;;;;;23.70;12.77;;;-0.50;99.90;;;;;;5000893;28;20038;-80
2024/03/08 03:17:25;;;;;;;23.65;12.75;;;-0.40;99.90;;;;;;4994800;28;20018;-81
2024/03/08 03:19:54;;;;;;;22.02;12.10;;;-0.50;99.90;;;;;;4980098;28;20483;-80
2024/03/08 03:22:20;;;;;;;17.23;12.77;;;-0.50;99.90;;;;;;4987263;28;20033;-79
2024/03/08 03:24:46;;;;;;;19.23;11.77;;;-0.50;99.90;;;;;;4996886;28;20022;-80
2024/03/08 03:27:12;;;;;;;22.67;13.02;;;-0.50;99.90;;;;;;4994521;28;20033;-81
2024/03/08 03:29:45;;;;;;;21.40;11.52;;;-0.60;99.90;;;;;;4992869;28;20034;-80
2024/03/08 03:32:11;;;;;;;22.08;13.25;;;-0.60;99.90;;;;;;4986540;28;20056;-80
2024/03/08 03:34:37;;;;;;;21.52;13.07;;;-0.60;99.90;;;;;;4985050;28;20031;-78
2024/03/08 03:37:04;;;;;;;18.02;12.07;;;-0.60;99.90;;;;;;4990337;28;20033;-77
2024/03/08 03:39:34;;;;;;;24.10;12.30;;;-0.60;99.90;;;;;;4996636;28;20030;-79
2024/03/08 03:42:01;;;;;;;22.45;11.70;;;-0.60;99.90;;;;;;4992449;28;20155;-78
2024/03/08 03:44:27;;;;;;;19.30;12.80;;;-0.60;99.90;;;;;;4993112;28;20033;-79
2024/03/08 03:46:53;;;;;;;20.05;13.20;;;-0.60;99.90;;;;;;4992923;28;20022;-79
2024/03/08 03:49:19;;;;;;;22.52;13.48;;;-0.60;99.90;;;;;;4983951;28;20042;-80
2024/03/08 03:51:46;;;;;;;17.63;11.38;;;-0.70;99.90;;;;;;4991252;28;20060;-81
2024/03/08 03:54:12;;;;;;;22.90;12.43;;;-0.70;99.90;;;;;;4997252;28;20048;-81
2024/03/08 03:56:39;;;;;;;23.10;12.35;;;-0.70;99.90;;;;;;4978037;28;20030;-82
2024/03/08 03:59:06;;;;;;;20.52;12.48;;;-0.70;99.90;;;;;;4958925;28;20125;-82
2024/03/08 04:01:32;;;;;;;22.60;12.75;;;-0.70;99.90;;;;;;4973359;28;20434;-83
2024/03/08 04:03:57;;;;;;;23.33;12.55;;;-0.70;99.90;;;;;;4994490;28;20109;-79
2024/03/08 04:06:24;;;;;;;21.40;11.85;;;-0.70;99.90;;;;;;4981156;28;20030;-81
2024/03/08 04:08:49;;;;;;;21.60;13.50;;;-0.70;99.90;;;;;;4979867;28;20018;-80
2024/03/08 04:11:16;;;;;;;19.67;12.35;;;-0.80;99.90;;;;;;4985413;28;20374;-80
2024/03/08 04:13:42;;;;;;;19.65;11.50;;;-0.80;99.90;;;;;;4974322;28;20022;-82
2024/03/08 04:16:08;;;;;;;20.90;12.88;;;-0.80;99.90;;;;;;4987565;28;20386;-80
2024/03/08 04:18:35;;;;;;;22.25;12.75;;;-0.80;99.90;;;;;;4994328;28;20562;-80
2024/03/08 04:21:02;;;;;;;21.13;12.63;;;-0.80;99.90;;;;;;4992963;28;20030;-80
2024/03/08 04:23:28;;;;;;;18.38;11.80;;;-0.80;99.90;;;;;;4984981;28;20048;-80
2024/03/08 04:25:54;;;;;;;19.63;11.98;;;-0.80;99.90;;;;;;4969886;28;20474;-79
2024/03/08 04:28:19;;;;;;;20.67;12.35;;;-0.80;99.90;;;;;;4972991;28;20044;-80
2024/03/08 04:30:46;;;;;;;21.52;11.98;;;-0.90;99.90;;;;;;4991536;28;20034;-80
2024/03/08 04:33:11;;;;;;;22.67;12.23;;;-0.80;99.90;;;;;;4989948;28;20018;-80
2024/03/08 04:35:37;;;;;;;20.25;11.70;;;-0.90;99.90;;;;;;4978823;28;20041;-80
2024/03/08 04:38:05;;;;;;;19.05;12.40;;;-0.90;99.90;;;;;;4978252;28;20084;-81
2024/03/08 04:40:31;;;;;;;24.27;12.77;;;-0.90;99.90;;;;;;4973463;28;20029;-82
2024/03/08 04:42:58;;;;;;;22.35;12.73;;;-0.90;99.90;;;;;;4992775;28;20033;-79
2024/03/08 04:45:25;;;;;;;23.58;12.90;;;-0.90;99.90;;;;;;4978448;28;20022;-81
2024/03/08 04:47:52;;;;;;;23.50;12.38;;;-0.90;99.90;;;;;;4981642;28;20018;-81
2024/03/08 04:50:18;;;;;;;22.20;13.50;;;-0.90;99.90;;;;;;4982213;28;20025;-83
2024/03/08 04:52:43;;;;;;;18.60;11.32;;;-1.00;99.90;;;;;;4972591;28;20017;-81
2024/03/08 04:55:09;;;;;;;19.63;12.30;;;-1.00;99.90;;;;;;4973194;28;20025;-81
2024/03/08 04:57:35;;;;;;;21.48;13.25;;;-1.00;99.90;;;;;;4991221;28;20029;-81
2024/03/08 05:00:10;;;;;;;20.33;12.23;;;-1.00;99.90;;;;;;4983714;28;20041;-80
2024/03/08 05:02:36;;;;;;;25.27;12.95;;;-1.00;99.90;;;;;;4992083;28;20500;-83
2024/03/08 05:05:02;;;;;;;18.92;12.80;;;-1.10;99.90;;;;;;4980378;28;20038;-83
2024/03/08 05:07:27;;;;;;;21.63;13.25;;;-1.00;99.90;;;;;;4977955;28;20045;-80
2024/03/08 05:09:53;;;;;;;22.60;13.98;;;-1.10;99.90;;;;;;5002353;28;20030;-81
2024/03/08 05:12:19;;;;;;;23.05;15.13;;;-1.10;99.90;;;;;;4993732;28;20034;-80
2024/03/08 05:14:49;;;;;;;27.48;14.73;;;-1.10;99.90;;;;;;4986534;28;20077;-82
2024/03/08 05:17:15;;;;;;;26.25;14.43;;;-1.10;99.90;;;;;;5024593;28;20035;-84
2024/03/08 05:19:40;;;;;;;27.42;15.15;;;-1.10;99.90;;;;;;5008645;28;20053;-85
2024/03/08 05:22:06;;;;;;;26.52;14.75;;;-1.10;99.90;;;;;;4997915;28;20025;-82
2024/03/08 05:24:31;;;;;;;29.63;16.90;;;-1.20;99.90;;;;;;4998113;28;20462;-82
2024/03/08 05:26:57;;;;;;;27.58;14.75;;;-1.20;99.90;;;;;;5002665;28;20056;-82
2024/03/08 05:29:23;;;;;;;25.67;15.57;;;-1.20;99.90;;;;;;5000284;28;20025;-82
2024/03/08 05:31:52;;;;;;;28.00;16.00;;;-1.20;99.90;;;;;;4985916;28;20039;-82
2024/03/08 05:34:19;;;;;;;29.38;15.20;;;-1.20;99.90;;;;;;4984362;28;20033;-82
2024/03/08 05:36:46;;;;;;;28.10;15.48;;;-1.20;99.90;;;;;;4984531;28;20033;-81
2024/03/08 05:39:15;;;;;;;30.27;14.43;;;-1.20;99.90;;;;;;5000617;28;20032;-83
2024/03/08 05:41:41;;;;;;;28.23;16.40;;;-1.20;99.90;;;;;;4984270;28;20018;-80
2024/03/08 05:44:07;;;;;;;24.75;15.05;;;-1.20;99.90;;;;;;4990153;28;20048;-80
2024/03/08 05:46:33;;;;;;;29.77;15.52;;;-1.30;99.90;;;;;;4992736;28;20025;-81
2024/03/08 05:48:59;;;;;;;31.75;16.73;;;-1.20;99.90;;;;;;4977898;28;20038;-81
2024/03/08 05:51:27;;;;;;;26.60;14.68;;;-1.30;99.90;;;;;;4986134;28;20060;-80
2024/03/08 05:53:55;;;;;;;23.83;13.70;;;-1.30;99.90;;;;;;4990299;28;20030;-81
2024/03/08 05:56:22;;;;;;;29.13;15.52;;;-1.30;99.90;;;;;;4995234;28;20132;-81
2024/03/08 05:58:49;;;;;;;34.90;17.02;;;-1.30;99.90;;;;;;4980637;28;20033;-80
2024/03/08 06:01:15;;;;;;;26.85;16.40;;;-1.30;99.90;;;;;;4969981;28;20025;-83
2024/03/08 06:03:44;;;;;;;26.85;15.63;;;-1.30;99.90;;;;;;4936947;28;20038;-83
2024/03/08 06:06:12;;;;;;;28.50;14.40;;;-1.30;99.90;;;;;;4983612;28;20025;-82
2024/03/08 06:08:38;;;;;;;26.35;15.45;;;-1.30;99.90;;;;;;4949935;28;20025;-81
2024/03/08 06:11:05;;;;;;;32.28;15.73;;;-1.20;99.90;;;;;;4978440;28;20381;-81
2024/03/08 06:13:31;;;;;;;27.63;15.43;;;-1.30;99.90;;;;;;4987399;28;20096;-83
2024/03/08 06:15:57;;;;;;;29.13;15.55;;;-1.30;99.90;;;;;;4961715;28;20037;-82
2024/03/08 06:18:23;;;;;;;26.48;15.48;;;-1.30;99.90;;;;;;4971870;28;20026;-81
2024/03/08 06:20:48;;;;;;;30.45;16.13;;;-1.30;99.90;;;;;;4966608;28;20018;-82
2024/03/08 06:23:19;;;;;;;30.33;15.93;;;-1.30;99.90;;;;;;4971697;28;20021;-83
2024/03/08 06:25:45;;;;;;;24.50;15.57;;;-1.30;99.90;;;;;;4976174;28;20044;-82
2024/03/08 06:28:11;;;;;;;27.60;16.17;;;-1.30;99.90;;;;;;4955712;28;20017;-81
2024/03/08 06:30:37;;;;;;;29.35;15.38;;;-1.30;99.90;;;;;;4941135;28;20037;-82
2024/03/08 06:33:02;;;;;;;28.38;15.73;;;-1.30;99.90;;;;;;4970112;28;20068;-83
2024/03/08 06:35:28;;;;;;;26.60;17.38;;;-1.20;99.90;;;;;;4972979;28;20025;-82
2024/03/08 06:37:54;;;;;;;28.67;17.95;;;-1.30;99.90;;;;;;4985778;28;20036;-82
2024/03/08 06:40:19;;;;;;;32.72;16.77;;;-1.20;99.90;;;;;;4958293;28;20116;-82
2024/03/08 06:42:45;;;;;;;27.35;16.48;;;-1.30;99.90;;;;;;4944304;28;20026;-83
2024/03/08 06:45:12;;;;;;;25.08;14.82;;;-1.20;99.90;;;;;;4979416;28;20462;-85
2024/03/08 06:47:38;;;;;;;30.67;17.52;;;-1.20;99.90;;;;;;4961678;28;20052;-81
2024/03/08 06:50:04;;;;;;;30.80;16.40;;;-1.30;99.90;;;;;;4977667;28;20401;-81
2024/03/08 06:52:29;;;;;;;29.25;17.15;;;-1.20;99.90;;;;;;4965601;28;20037;-82
2024/03/08 06:54:57;;;;;;;30.58;18.80;;;-1.20;99.90;;;;;;4949429;28;20026;-84
2024/03/08 06:57:22;;;;;;;26.77;16.35;;;-1.20;99.90;;;;;;4974400;28;20037;-82
2024/03/08 06:59:49;;;;;;;27.80;16.10;;;-1.10;99.90;;;;;;4955919;28;20230;-84
2024/03/08 07:02:14;;;;;;;32.90;16.30;;;-1.10;99.90;;;;;;4972012;28;20547;-82
2024/03/08 07:04:40;;;;;;;28.30;17.27;;;-1.10;99.90;;;;;;4959014;28;20097;-84
2024/03/08 07:07:09;;;;;;;31.85;17.88;;;-1.10;99.90;;;;;;4956418;28;20019;-84
2024/03/08 07:09:35;;;;;;;30.48;17.15;;;-1.00;99.90;;;;;;4937098;28;20040;-85
2024/03/08 07:12:01;;;;;;;30.88;17.60;;;-1.00;99.90;;;;;;4973398;28;20371;-83
2024/03/08 07:14:27;;;;;;;29.27;16.73;;;-1.00;99.90;;;;;;4967568;28;21475;-82
2024/03/08 07:16:52;;;;;;;28.88;17.13;;;-0.90;99.90;;;;;;4962169;28;20026;-81
2024/03/08 07:19:19;;;;;;;30.23;17.27;;;-0.90;99.90;;;;;;4943122;28;20084;-82
2024/03/08 07:21:44;;;;;;;27.75;16.50;;;-0.90;99.90;;;;;;4951019;28;20033;-82
2024/03/08 07:26:49;;;;;;;29.08;16.35;;;-0.80;99.90;;;;;;4943857;28;20076;-81
2024/03/08 07:29:15;;;;;;;29.25;17.55;;;-0.80;99.90;;;;;;4984543;28;20032;-80
2024/03/08 07:34:25;;;;;;;29.63;17.02;;;-0.70;99.90;;;;;;4967078;28;20092;-81
2024/03/08 07:36:50;;;;;;;30.38;17.80;;;-0.60;99.90;;;;;;4966997;28;20049;-81
2024/03/08 07:39:16;;;;;;;32.40;17.65;;;-0.60;99.90;;;;;;4951788;28;20030;-80
2024/03/08 07:41:41;;;;;;;28.88;16.98;;;-0.50;99.90;;;;;;4966465;28;20033;-80
2024/03/08 07:44:07;;;;;;;30.33;16.77;;;-0.50;99.90;;;;;;4980155;28;20026;-79
2024/03/08 07:46:36;;;;;;;31.00;17.02;;;-0.40;99.90;;;;;;4977710;28;20018;-81
2024/03/08 07:49:02;;;;;;;29.95;17.05;;;-0.30;99.90;;;;;;4966550;28;20025;-80
2024/03/08 07:51:28;;;;;;;30.40;17.02;;;-0.30;99.90;;;;;;4968137;28;20072;-80
2024/03/08 07:53:54;;;;;;;31.05;17.98;;;-0.20;99.90;;;;;;4955987;28;20625;-81
2024/03/08 07:56:21;;;;;;;31.25;18.60;;;-0.10;99.90;;;;;;4972271;28;21550;-81
2024/03/08 07:58:48;;;;;;;27.90;17.30;;;-0.10;99.90;;;;;;4966546;28;20062;-81
2024/03/08 08:01:20;;;;;;;34.28;18.88;;;0.00;99.90;;;;;;4974524;28;20080;-80
2024/03/08 08:03:48;;;;;;;30.67;18.45;;;0.10;99.90;;;;;;4916920;28;20541;-79
2024/03/08 08:06:15;;;;;;;31.40;17.83;;;0.20;99.90;;;;;;4953249;28;20058;-80
2024/03/08 08:08:44;;;;;;;34.20;18.23;;;0.30;99.90;;;;;;4956985;28;20068;-81
2024/03/08 08:11:15;;;;;;;29.13;17.17;;;0.30;99.90;;;;;;4963398;28;20030;-82
2024/03/08 08:13:43;;;;;;;31.30;18.20;;;0.40;99.90;;;;;;4986972;28;22343;-81
2024/03/08 08:16:09;;;;;;;29.98;17.63;;;0.50;99.90;;;;;;4985569;28;20022;-81
2024/03/08 08:18:35;;;;;;;30.35;16.00;;;0.60;99.90;;;;;;4967395;28;20121;-81
2024/03/08 08:21:01;;;;;;;30.25;17.08;;;0.70;99.90;;;;;;4968453;28;20018;-80
2024/03/08 08:23:26;;;;;;;25.83;16.05;;;0.80;99.90;;;;;;4968448;28;20034;-80
2024/03/08 08:25:52;;;;;;;28.90;17.23;;;1.00;99.90;;;;;;4980172;28;20026;-80
2024/03/08 08:28:18;;;;;;;29.25;16.48;;;1.10;99.90;;;;;;4983266;28;20463;-83
2024/03/08 08:30:44;;;;;;;30.13;16.85;;;1.30;99.90;;;;;;4908929;28;20021;-82
2024/03/08 08:33:10;;;;;;;24.63;15.43;;;1.40;99.90;;;;;;4926794;28;20041;-80
2024/03/08 08:35:39;;;;;;;27.88;16.50;;;1.50;99.90;;;;;;4965012;28;20042;-80
2024/03/08 08:38:07;;;;;;;23.95;15.23;;;1.60;99.90;;;;;;4952819;28;20053;-81
2024/03/08 08:40:33;;;;;;;27.85;15.57;;;1.70;99.90;;;;;;4969989;28;20049;-80
2024/03/08 08:42:59;;;;;;;29.80;16.15;;;1.90;99.90;;;;;;4974723;28;20022;-82
2024/03/08 08:45:25;;;;;;;25.10;14.98;;;2.00;99.90;;;;;;4943773;28;20033;-80
2024/03/08 08:47:51;;;;;;;24.17;15.07;;;2.20;99.90;;;;;;4958616;28;20022;-80
2024/03/08 08:50:22;;;;;;;26.00;15.20;;;2.40;99.90;;;;;;4967351;28;20026;-83
2024/03/08 08:52:49;;;;;;;22.02;14.23;;;2.50;99.90;;;;;;4982295;28;20050;-83
2024/03/08 08:55:14;;;;;;;19.92;13.85;;;2.70;99.90;;;;;;4975086;28;20042;-83
2024/03/08 08:57:41;;;;;;;23.83;14.27;;;2.80;99.90;;;;;;4956542;28;20022;-84
2024/03/08 09:00:10;;;;;;;24.05;15.50;;;2.90;99.90;;;;;;4949573;28;20124;-84
2024/03/08 09:02:37;;;;;;;24.73;15.32;;;3.00;99.90;;;;;;4967328;28;20022;-84
2024/03/08 09:05:03;;;;;;;22.73;15.43;;;3.10;99.90;;;;;;4979577;28;20010;-80
2024/03/08 09:07:29;;;;;;;27.95;15.70;;;3.20;99.90;;;;;;4977004;28;20055;-83
2024/03/08 09:09:57;;;;;;;23.38;14.77;;;3.30;99.90;;;;;;4962440;28;21609;-83
2024/03/08 09:12:23;;;;;;;21.38;13.65;;;3.40;99.90;;;;;;4952054;28;20402;-82
2024/03/08 09:14:49;;;;;;;25.50;14.18;;;3.50;99.90;;;;;;4936930;28;20029;-82
2024/03/08 09:17:20;;;;;;;23.27;13.52;;;3.60;99.90;;;;;;4948100;28;20026;-82
2024/03/08 09:19:46;;;;;;;20.45;13.57;;;3.60;99.90;;;;;;4972724;28;20081;-81
2024/03/08 09:22:12;;;;;;;22.10;13.88;;;3.80;99.90;;;;;;4974679;28;20010;-82
2024/03/08 09:24:38;;;;;;;22.38;12.80;;;3.90;99.90;;;;;;4939866;28;20048;-80
2024/03/08 09:27:04;;;;;;;21.73;13.82;;;4.00;99.90;;;;;;4953554;28;20509;-80
2024/03/08 09:29:29;;;;;;;23.38;14.05;;;4.10;99.90;;;;;;4944578;28;20025;-81
2024/03/08 09:31:55;;;;;;;23.02;14.20;;;4.20;99.90;;;;;;4969852;28;20033;-80
2024/03/08 09:34:21;;;;;;;18.10;11.95;;;4.30;99.90;;;;;;4958021;28;20124;-81
2024/03/08 09:36:47;;;;;;;23.40;14.20;;;4.40;99.90;;;;;;4959927;28;20135;-81
2024/03/08 09:39:16;;;;;;;23.10;14.10;;;4.40;99.90;;;;;;4930619;28;20048;-82
2024/03/08 09:41:43;;;;;;;21.23;13.25;;;4.40;99.90;;;;;;4893911;28;20026;-80
2024/03/08 09:44:09;;;;;;;18.20;12.45;;;4.40;99.90;;;;;;4874793;28;20033;-80
2024/03/08 09:46:35;;;;;;;18.73;12.88;;;4.60;99.90;;;;;;4940297;28;20022;-82
2024/03/08 09:49:01;;;;;;;25.80;14.88;;;4.70;99.90;;;;;;4931280;28;20038;-83
2024/03/08 09:51:34;;;;;;;22.00;12.65;;;4.80;99.90;;;;;;4905642;28;20038;-81
2024/03/08 09:54:00;;;;;;;21.48;13.32;;;4.80;99.90;;;;;;4864374;28;20033;-80
2024/03/08 09:56:27;;;;;;;21.48;13.88;;;4.80;99.90;;;;;;4921773;28;21792;-80
2024/03/08 10:01:38;;;;;;;21.15;12.20;;;4.90;99.90;;;;;;4945600;28;20029;-81
2024/03/08 10:04:04;;;;;;;22.80;14.05;;;4.90;99.90;;;;;;4937504;28;20053;-80
2024/03/08 10:06:31;;;;;;;21.35;13.82;;;4.90;99.90;;;;;;4904834;28;20060;-83
2024/03/08 10:08:57;;;;;;;22.45;14.93;;;5.00;99.90;;;;;;4880213;28;20067;-80
2024/03/08 10:11:24;;;;;;;21.38;13.20;;;5.10;99.90;;;;;;4884645;28;21305;-81
2024/03/08 10:13:50;;;;;;;23.42;12.98;;;5.20;99.90;;;;;;4940976;28;20030;-80
2024/03/08 10:16:17;;;;;;;19.88;12.98;;;5.30;99.90;;;;;;4929071;28;20045;-81
2024/03/08 10:18:44;;;;;;;23.05;14.57;;;5.30;99.90;;;;;;4875453;28;20036;-81
2024/03/08 10:21:11;;;;;;;21.63;13.50;;;5.30;99.90;;;;;;4899867;28;20139;-83
2024/03/08 10:23:37;;;;;;;19.95;12.77;;;5.40;99.90;;;;;;4885127;28;20034;-81
2024/03/08 10:26:20;;;;;;;19.48;12.75;;;5.40;99.90;;;;;;4923432;28;20062;-81
2024/03/08 10:28:48;;;;;;;20.02;12.73;;;5.50;99.90;;;;;;4955034;28;20161;-82
2024/03/08 10:31:14;;;;;;;22.50;13.95;;;5.50;99.90;;;;;;4880316;28;20164;-81
2024/03/08 10:33:41;;;;;;;21.13;12.98;;;5.50;99.90;;;;;;4899861;28;20038;-81
2024/03/08 10:36:10;;;;;;;19.17;12.57;;;5.50;99.90;;;;;;4899034;28;20552;-80
2024/03/08 10:38:41;;;;;;;24.45;14.18;;;5.60;99.90;;;;;;4875848;28;20054;-80
2024/03/08 10:41:16;;;;;;;17.95;12.98;;;5.70;99.90;;;;;;4883654;28;20022;-81
2024/03/08 10:44:02;;;;;;;22.88;13.98;;;5.80;99.90;;;;;;4931296;28;21694;-82
2024/03/08 10:46:58;;;;;;;;;;;5.90;99.90;;;;;;4894289;28;20486;-80
2024/03/08 10:49:30;;;;;;;19.77;12.57;;;5.90;99.90;;;;;;4885457;28;19955;-82
2024/03/08 10:51:57;;;;;;;21.77;13.70;;;6.00;99.90;;;;;;4938939;28;21528;-82
2024/03/08 10:54:24;;;;;;;18.75;13.30;;;6.10;99.90;;;;;;4899030;28;20061;-83
2024/03/08 10:56:50;;;;;;;21.95;15.00;;;6.20;99.90;;;;;;4885453;28;20072;-81
2024/03/08 10:59:17;;;;;;;20.73;14.50;;;6.20;99.90;;;;;;4890255;28;20022;-84
2024/03/08 11:01:42;;;;;;;22.55;14.30;;;6.20;99.90;;;;;;4926249;28;22580;-81
2024/03/08 11:04:08;;;;;;;21.55;13.50;;;6.20;99.90;;;;;;4951043;28;20053;-84
2024/03/08 11:06:37;;;;;;;18.88;13.02;;;6.30;99.90;;;;;;4918240;28;20017;-81
2024/03/08 11:09:03;;;;;;;23.92;13.00;;;6.40;99.90;;;;;;4907408;28;20022;-81
2024/03/08 11:11:36;;;;;;;18.33;12.35;;;6.40;99.90;;;;;;4878158;28;20466;-82
2024/03/08 11:14:03;;;;;;;19.90;12.65;;;6.40;99.90;;;;;;4907808;28;20046;-81
2024/03/08 11:16:30;;;;;;;16.63;11.70;;;6.40;99.90;;;;;;4907240;28;20026;-80
2024/03/08 11:19:04;;;;;;;20.77;13.65;;;6.50;99.90;;;;;;4928397;28;21707;-82
2024/03/08 11:21:33;;;;;;;22.02;13.63;;;6.50;99.90;;;;;;4907121;28;20026;-82
2024/03/08 11:24:05;;;;;;;19.17;12.55;;;6.50;99.90;;;;;;4867017;28;20030;-82
2024/03/08 11:26:31;;;;;;;21.45;13.10;;;6.60;99.90;;;;;;4888818;28;20105;-82
2024/03/08 11:29:30;;;;;;;18.95;11.35;;;6.50;99.90;;;;;;4929477;28;20158;-82
2024/03/08 11:32:12;;;;;;;18.33;11.65;;;6.60;99.90;;;;;;4930454;28;20026;-84
2024/03/08 11:34:43;;;;;;;16.98;11.07;;;6.70;99.90;;;;;;4925291;28;20040;-82
2024/03/08 11:37:20;;;;;;;17.75;10.93;;;6.70;99.90;;;;;;4945081;28;20021;-80
2024/03/08 11:39:58;;;;;;;16.55;10.68;;;6.70;99.90;;;;;;4924391;28;20099;-82
2024/03/08 11:42:26;;;;;;;15.23;10.50;;;6.80;99.90;;;;;;4920713;28;20024;-82
2024/03/08 11:44:52;;;;;;;17.40;10.38;;;6.80;99.90;;;;;;4864512;28;20037;-83
2024/03/08 11:47:19;;;;;;;15.90;11.13;;;6.80;99.90;;;;;;4849902;28;20041;-83
2024/03/08 11:49:48;;;;;;;18.13;11.35;;;6.90;99.90;;;;;;4954563;28;21727;-81
2024/03/08 11:52:18;;;;;;;17.33;12.00;;;6.90;99.90;;;;;;4946157;28;20172;-81
2024/03/08 11:54:54;;;;;;;15.80;9.90;;;6.90;99.90;;;;;;4879782;28;20148;-80
2024/03/08 11:57:23;;;;;;;15.70;10.70;;;7.00;99.90;;;;;;4890500;28;20462;-80
2024/03/08 12:00:06;;;;;;;18.08;10.98;;;7.00;99.90;;;;;;4857723;28;20030;-82
2024/03/08 12:02:32;;;;;;;14.07;9.75;;;7.00;99.90;;;;;;4867610;28;20060;-82
2024/03/08 12:05:03;;;;;;;17.63;11.77;;;7.00;99.90;;;;;;4928657;28;20018;-81
2024/03/08 12:07:29;;;;;;;15.13;11.20;;;7.00;99.90;;;;;;4912794;28;20018;-82
2024/03/08 12:10:18;;;;;;;15.65;10.98;;;7.00;99.90;;;;;;4931997;28;20026;-83
2024/03/08 12:12:49;;;;;;;16.17;10.55;;;7.00;99.90;;;;;;4893914;28;20487;-82
2024/03/08 12:15:22;;;;;;;17.35;10.85;;;7.10;99.90;;;;;;4903541;28;20026;-82
2024/03/08 12:17:52;;;;;;;15.63;11.32;;;7.10;99.90;;;;;;4896718;28;20018;-83
2024/03/08 12:20:31;;;;;;;18.60;11.88;;;7.20;99.90;;;;;;4878023;28;20054;-80
2024/03/08 12:22:58;;;;;;;16.75;11.15;;;7.20;99.90;;;;;;4945926;28;20734;-81
2024/03/08 12:25:36;;;;;;;17.27;11.60;;;7.20;99.90;;;;;;4893293;28;20028;-83
2024/03/08 12:28:13;;;;;;;19.63;11.52;;;7.30;99.90;;;;;;4929858;28;20021;-82
2024/03/08 12:30:51;;;;;;;15.85;10.27;;;7.30;99.90;;;;;;4895125;28;20116;-82
2024/03/08 12:33:17;;;;;;;16.25;10.50;;;7.30;99.90;;;;;;4916369;28;20052;-85
2024/03/08 12:35:53;;;;;;;19.02;11.70;;;7.30;99.90;;;;;;4898033;28;20081;-85
2024/03/08 12:38:24;;;;;;;15.20;10.82;;;7.40;99.90;;;;;;4887329;28;20033;-85
2024/03/08 12:40:49;;;;;;;16.23;11.43;;;7.30;99.90;;;;;;4951744;28;20032;-83
2024/03/08 12:43:15;;;;;;;17.48;11.77;;;7.40;99.90;;;;;;4950938;28;20502;-83